KPNO PMTC Data


Display last 80 lines of pmtc.log
This page should refresh every five minutes.
 
All temperatures in Centigrade

                                   Probe    Dew                                                                                                                                                                                                    Set  Flow 
    Date   Time             Humid    Amb   Point    NIB   EIB   SIB   WIB   NOB   EOB   SOB   WOB   NIT   EIT   SIT   WIT   NOT   EOT   SOT   WOT   STS   MHS   MHW   COS   COW   CIB   CIM   CIT   DBS   TSB   TSM   TST   HXI   HXO   HXA   HXD Point Rate   NTT   ETT   WTT   STT   NTB   ETB   WTB   STB   TRS   TRW   CSI   CSO   PCI   PCO   CCI   CCO

Wed Aug 22 23:09:01 2018 H 75.6 P 18.450 D 99.2 21.7 21.6 21.7 21.8 21.6 21.6 21.4 21.5 21.6 21.6 21.7 21.6 21.6 21.6 21.5 21.7 21.5 21.4 21.4 21.5 21.6 21.5 21.4 21.5 21.6 21.6 21.6 21.6 21.6 21.5 21.6 21.6 9.5 999.0 21.6 21.7 21.8 21.9 21.6 21.6 21.7 21.8 22.2 22.1 22.1 22.1 22.2 22.0 22.1 22.1 
Wed Aug 22 23:14:02 2018 H 75.6 P 18.550 D 99.2 21.8 21.7 21.8 21.7 21.7 21.6 21.4 21.5 21.6 21.6 21.7 21.6 21.6 21.4 21.6 21.7 21.4 21.4 21.4 21.5 21.5 21.4 21.4 21.5 21.6 21.6 21.7 21.6 21.6 21.5 21.5 21.6 9.5 999.0 21.6 21.7 21.8 21.9 21.5 21.6 21.6 21.9 22.2 22.2 22.1 22.1 22.2 22.0 22.1 22.1 
Wed Aug 22 23:19:02 2018 H 73.7 P 19.000 D 99.2 21.8 21.7 21.7 21.7 21.7 21.6 21.4 21.6 21.6 21.7 21.6 21.6 21.6 21.5 21.6 21.7 21.5 21.4 21.5 21.5 21.6 21.4 21.4 21.5 21.7 21.7 21.7 21.6 21.6 21.5 21.6 21.6 9.5 999.0 21.6 21.8 21.8 21.9 21.6 21.7 21.7 21.9 22.2 22.2 22.1 22.1 22.2 22.1 22.1 22.1 
Wed Aug 22 23:24:02 2018 H 72.8 P 19.100 D 99.2 21.8 21.6 21.7 21.8 21.7 21.6 21.5 21.6 21.6 21.6 21.6 21.6 21.7 21.5 21.6 21.7 21.4 21.4 21.5 21.5 21.5 21.3 21.4 21.5 21.7 21.6 21.6 21.7 21.6 21.6 21.6 21.6 9.5 999.0 21.6 21.7 21.8 21.9 21.6 21.6 21.7 21.9 22.2 22.2 22.2 22.1 22.1 22.0 22.1 22.1 
Wed Aug 22 23:29:02 2018 H 73.6 P 18.850 D 99.2 21.8 21.6 21.8 21.7 21.7 21.6 21.5 21.6 21.7 21.6 21.6 21.7 21.6 21.5 21.6 21.7 21.4 21.4 21.5 21.5 21.6 21.4 21.4 21.4 21.6 21.7 21.6 21.6 21.6 21.5 21.5 21.6 9.5 999.0 21.6 21.6 21.8 21.9 21.6 21.6 21.7 21.9 22.2 22.2 22.1 22.1 22.2 22.0 22.0 22.1 
Wed Aug 22 23:34:02 2018 H 74.9 P 18.800 D 99.2 21.8 21.6 21.8 21.8 21.7 21.6 21.4 21.6 21.6 21.6 21.6 21.6 21.6 21.5 21.5 21.7 21.5 21.4 21.4 21.5 21.6 21.4 21.4 21.4 21.7 21.6 21.7 21.6 21.6 21.5 21.6 21.6 9.5 999.0 21.6 21.7 21.8 21.9 21.6 21.6 21.7 21.9 22.2 22.2 22.1 22.1 22.2 22.1 22.1 22.1 
Wed Aug 22 23:39:02 2018 H 74.2 P 18.950 D 99.2 21.8 21.7 21.7 21.8 21.7 21.6 21.5 21.6 21.6 21.7 21.6 21.7 21.6 21.5 21.5 21.7 21.5 21.4 21.5 21.6 21.5 21.4 21.4 21.6 21.6 21.7 21.7 21.6 21.7 21.5 21.6 21.7 9.5 999.0 21.6 21.7 21.8 21.9 21.6 21.6 21.7 21.9 22.2 22.1 22.1 22.1 22.2 22.1 22.1 22.1 
Wed Aug 22 23:44:02 2018 H 73.2 P 19.250 D 99.2 21.8 21.6 21.8 21.8 21.7 21.6 21.5 21.6 21.6 21.6 21.7 21.7 21.6 21.5 21.6 21.7 21.5 21.4 21.4 21.5 21.5 21.4 21.4 21.5 21.7 21.7 21.6 21.7 21.6 21.5 21.6 21.6 9.5 999.0 21.6 21.8 21.8 21.9 21.6 21.6 21.7 21.9 22.2 22.1 22.2 22.1 22.2 22.1 22.1 22.2 
Wed Aug 22 23:49:02 2018 H 74.4 P 18.850 D 99.2 21.8 21.6 21.7 21.8 21.7 21.6 21.5 21.6 21.6 21.6 21.6 21.7 21.6 21.5 21.5 21.6 21.5 21.4 21.5 21.5 21.5 21.4 21.5 21.5 21.7 21.6 21.7 21.6 21.7 21.6 21.5 21.6 9.5 999.0 21.6 21.7 21.8 21.9 21.6 21.7 21.7 21.8 22.2 22.2 22.1 22.1 22.2 22.1 22.1 22.2 
Wed Aug 22 23:54:02 2018 H 75.0 P 18.800 D 99.2 21.8 21.6 21.8 21.8 21.6 21.6 21.4 21.5 21.6 21.6 21.6 21.7 21.6 21.5 21.4 21.6 21.4 21.4 21.5 21.5 21.5 21.4 21.3 21.5 21.6 21.6 21.7 21.6 21.6 21.6 21.6 21.6 9.5 999.0 21.6 21.8 21.8 22.0 21.6 21.7 21.7 21.9 22.2 22.1 22.1 22.1 22.2 22.1 22.1 22.2 
Wed Aug 22 23:59:02 2018 H 74.8 P 19.050 D 99.2 21.8 21.7 21.8 21.8 21.7 21.6 21.5 21.6 21.6 21.6 21.7 21.6 21.6 21.6 21.5 21.7 21.5 21.4 21.4 21.5 21.6 21.4 21.4 21.5 21.6 21.6 21.6 21.6 21.7 21.5 21.6 21.6 9.5 999.0 21.6 21.7 21.8 21.9 21.6 21.6 21.7 21.9 22.2 22.2 22.1 22.1 22.2 22.0 22.1 22.1 
Thu Aug 23 00:04:02 2018 H 73.0 P 19.500 D 99.2 21.8 21.7 21.8 21.7 21.7 21.6 21.5 21.6 21.6 21.6 21.6 21.7 21.6 21.6 21.5 21.7 21.5 21.4 21.5 21.5 21.5 21.5 21.4 21.5 21.7 21.7 21.7 21.7 21.7 21.6 21.6 21.6 9.5 999.0 21.6 21.7 21.8 21.9 21.6 21.7 21.7 21.9 22.2 22.1 22.1 22.1 22.2 22.1 22.1 22.2 
Thu Aug 23 00:09:03 2018 H 72.4 P 19.600 D 99.2 21.8 21.7 21.8 21.8 21.7 21.6 21.4 21.6 21.6 21.7 21.6 21.7 21.6 21.6 21.6 21.7 21.4 21.4 21.5 21.5 21.5 21.4 21.4 21.5 21.6 21.6 21.7 21.7 21.6 21.6 21.5 21.6 9.5 999.0 21.6 21.7 21.8 22.0 21.6 21.7 21.7 21.9 22.2 22.1 22.0 22.1 22.2 22.1 22.1 22.2 
Thu Aug 23 00:14:03 2018 H 72.0 P 19.700 D 99.2 21.8 21.6 21.8 21.7 21.7 21.6 21.5 21.6 21.6 21.6 21.7 21.7 21.6 21.5 21.6 21.7 21.5 21.4 21.4 21.5 21.6 21.5 21.4 21.5 21.7 21.7 21.7 21.7 21.6 21.6 21.6 21.7 9.5 999.0 21.6 21.7 21.8 22.0 21.6 21.7 21.7 21.8 22.2 22.1 22.1 22.1 22.2 22.0 22.1 22.2 
Thu Aug 23 00:19:03 2018 H 71.8 P 19.800 D 99.2 21.8 21.7 21.7 21.7 21.7 21.6 21.5 21.6 21.7 21.6 21.7 21.6 21.6 21.6 21.6 21.7 21.5 21.5 21.4 21.5 21.6 21.4 21.4 21.5 21.7 21.6 21.7 21.7 21.6 21.6 21.6 21.6 9.5 999.0 21.6 21.7 21.8 22.0 21.6 21.6 21.7 21.8 22.2 22.2 22.2 22.1 22.2 22.1 22.1 22.1 
Thu Aug 23 00:24:03 2018 H 71.5 P 19.750 D 99.2 21.8 21.7 21.7 21.8 21.7 21.6 21.5 21.6 21.8 21.7 21.7 21.8 21.7 21.6 21.6 21.6 21.5 21.5 21.5 21.5 21.6 21.5 21.4 21.5 21.7 21.7 21.7 21.7 21.6 21.6 21.6 21.6 9.5 999.0 21.6 21.7 21.8 21.9 21.6 21.7 21.7 21.9 22.2 22.1 22.1 22.1 22.2 22.1 22.2 22.2 
Thu Aug 23 00:29:03 2018 H 72.8 P 19.400 D 99.2 21.8 21.7 21.8 21.8 21.7 21.6 21.5 21.6 21.6 21.7 21.7 21.7 21.7 21.6 21.6 21.7 21.5 21.5 21.5 21.5 21.6 21.5 21.5 21.5 21.7 21.6 21.7 21.6 21.7 21.6 21.6 21.7 9.5 999.0 21.7 21.7 21.8 21.9 21.6 21.7 21.7 21.9 22.2 22.2 22.2 22.1 22.2 22.1 22.1 22.1 
Thu Aug 23 00:34:03 2018 H 74.5 P 19.000 D 99.2 21.8 21.7 21.8 21.8 21.7 21.6 21.5 21.6 21.7 21.7 21.6 21.7 21.7 21.6 21.6 21.7 21.5 21.4 21.5 21.5 21.6 21.5 21.5 21.5 21.7 21.7 21.7 21.7 21.6 21.6 21.6 21.6 9.5 999.0 21.6 21.8 21.8 21.9 21.6 21.7 21.8 21.9 22.2 22.2 22.1 22.1 22.2 22.1 22.1 22.2 
Thu Aug 23 00:39:03 2018 H 75.6 P 18.900 D 99.2 21.8 21.7 21.8 21.8 21.8 21.6 21.5 21.6 21.7 21.6 21.7 21.7 21.6 21.6 21.6 21.7 21.5 21.5 21.4 21.5 21.6 21.4 21.5 21.5 21.7 21.6 21.6 21.7 21.6 21.6 21.6 21.6 9.5 999.0 21.7 21.8 21.8 21.9 21.6 21.6 21.6 21.9 22.2 22.1 22.1 22.2 22.2 22.1 22.1 22.1 
Thu Aug 23 00:44:03 2018 H 76.1 P 18.800 D 99.2 21.8 21.7 21.8 21.8 21.7 21.6 21.5 21.6 21.6 21.6 21.6 21.8 21.6 21.5 21.6 21.7 21.5 21.5 21.5 21.5 21.6 21.4 21.4 21.5 21.7 21.6 21.7 21.6 21.7 21.6 21.6 21.7 9.5 999.0 21.6 21.7 21.8 21.9 21.6 21.6 21.7 21.9 22.2 22.1 22.2 22.2 22.2 22.0 22.2 22.2 
Thu Aug 23 00:49:03 2018 H 76.4 P 18.783 D 99.2 21.8 21.7 21.8 21.8 21.7 21.6 21.5 21.6 21.7 21.7 21.7 21.7 21.7 21.5 21.6 21.7 21.5 21.5 21.5 21.5 21.6 21.4 21.5 21.5 21.7 21.7 21.7 21.7 21.7 21.6 21.6 21.6 9.5 999.0 21.7 21.7 21.8 21.9 21.6 21.6 21.7 21.9 22.2 22.2 22.2 22.2 22.2 22.1 22.1 22.2 
Thu Aug 23 00:54:03 2018 H 76.4 P 18.783 D 99.2 21.8 21.7 21.7 21.8 21.7 21.6 21.5 21.6 21.7 21.6 21.7 21.7 21.6 21.6 21.6 21.7 21.5 21.5 21.5 21.5 21.5 21.5 21.4 21.5 21.7 21.7 21.7 21.7 21.7 21.6 21.6 21.6 9.5 999.0 21.6 21.7 21.8 21.9 21.6 21.7 21.7 21.9 22.2 22.2 22.1 22.2 22.2 22.0 22.1 22.1 
Thu Aug 23 00:59:03 2018 H 76.5 P 18.700 D 99.2 21.8 21.7 21.7 21.8 21.7 21.6 21.5 21.6 21.7 21.8 21.6 21.7 21.7 21.6 21.6 21.7 21.5 21.5 21.5 21.5 21.6 21.4 21.4 21.5 21.7 21.6 21.7 21.7 21.7 21.5 21.6 21.6 9.5 999.0 21.6 21.7 21.8 21.9 21.6 21.7 21.6 21.9 22.2 22.2 22.1 22.1 22.2 22.1 22.1 22.2 
Thu Aug 23 01:04:04 2018 H 76.6 P 18.700 D 99.2 21.8 21.7 21.7 21.7 21.7 21.6 21.5 21.6 21.7 21.6 21.6 21.7 21.6 21.6 21.6 21.7 21.5 21.5 21.5 21.5 21.6 21.4 21.4 21.5 21.7 21.7 21.7 21.7 21.7 21.6 21.6 21.6 9.5 999.0 21.6 21.7 21.8 21.9 21.6 21.6 21.6 21.8 22.2 22.1 22.1 22.1 22.2 22.0 22.1 22.2 
Thu Aug 23 01:09:04 2018 H 76.9 P 18.700 D 99.2 21.8 21.7 21.8 21.7 21.8 21.6 21.5 21.6 21.7 21.8 21.7 21.7 21.7 21.6 21.6 21.7 21.5 21.5 21.5 21.5 21.5 21.5 21.5 21.5 21.7 21.7 21.7 21.7 21.6 21.6 21.6 21.7 9.5 999.0 21.6 21.7 21.8 21.9 21.6 21.6 21.7 21.9 22.2 22.2 22.1 22.2 22.2 22.1 22.1 22.2 
Thu Aug 23 01:14:04 2018 H 76.9 P 18.717 D 99.2 21.8 21.7 21.8 21.8 21.7 21.6 21.5 21.6 21.7 21.6 21.6 21.7 21.6 21.6 21.6 21.7 21.5 21.4 21.5 21.5 21.6 21.5 21.4 21.5 21.7 21.6 21.6 21.7 21.7 21.6 21.6 21.7 9.5 999.0 21.6 21.7 21.7 21.9 21.6 21.7 21.6 21.9 22.2 22.1 22.2 22.1 22.2 22.0 22.1 22.2 
Thu Aug 23 01:19:04 2018 H 77.2 P 18.633 D 99.2 21.8 21.7 21.7 21.7 21.7 21.6 21.6 21.6 21.7 21.7 21.6 21.8 21.7 21.5 21.5 21.7 21.5 21.5 21.5 21.5 21.5 21.4 21.4 21.5 21.7 21.6 21.7 21.7 21.6 21.6 21.6 21.6 9.5 999.0 21.6 21.7 21.8 21.9 21.6 21.6 21.7 21.8 22.2 22.1 22.1 22.1 22.2 22.1 22.1 22.1 
Thu Aug 23 01:24:04 2018 H 76.9 P 18.750 D 99.2 21.8 21.7 21.8 21.7 21.6 21.6 21.5 21.5 21.7 21.7 21.7 21.7 21.6 21.6 21.6 21.7 21.5 21.5 21.5 21.6 21.6 21.5 21.4 21.4 21.7 21.6 21.7 21.7 21.7 21.6 21.6 21.6 9.5 999.0 21.6 21.7 21.8 22.0 21.6 21.6 21.7 21.9 22.2 22.1 22.1 22.1 22.2 22.1 22.1 22.2 
Thu Aug 23 01:29:04 2018 H 77.0 P 18.700 D 99.2 21.8 21.7 21.7 21.8 21.7 21.6 21.4 21.5 21.6 21.6 21.7 21.7 21.6 21.6 21.6 21.7 21.5 21.5 21.5 21.5 21.6 21.4 21.4 21.5 21.7 21.7 21.7 21.6 21.6 21.6 21.6 21.6 9.5 999.0 21.6 21.7 21.7 21.9 21.6 21.6 21.7 21.8 22.2 22.1 22.1 22.2 22.1 22.1 22.1 22.2 
Thu Aug 23 01:34:04 2018 H 77.6 P 18.650 D 99.2 21.8 21.6 21.8 21.8 21.8 21.6 21.5 21.6 21.7 21.7 21.7 21.7 21.6 21.6 21.6 21.7 21.4 21.5 21.5 21.5 21.5 21.4 21.4 21.5 21.8 21.7 21.7 21.7 21.7 21.6 21.6 21.6 9.5 999.0 21.6 21.7 21.8 21.8 21.6 21.6 21.7 21.8 22.1 22.2 22.1 22.2 22.2 22.1 22.1 22.1 
Thu Aug 23 01:39:04 2018 H 77.6 P 18.650 D 99.2 21.8 21.7 21.8 21.7 21.7 21.6 21.5 21.6 21.7 21.7 21.7 21.8 21.6 21.6 21.6 21.7 21.5 21.5 21.5 21.5 21.5 21.5 21.4 21.5 21.6 21.6 21.7 21.7 21.6 21.6 21.6 21.6 9.5 999.0 21.6 21.7 21.8 21.9 21.7 21.6 21.7 21.9 22.2 22.1 22.1 22.1 22.2 22.1 22.1 22.1 
Thu Aug 23 01:44:04 2018 H 77.3 P 18.700 D 99.2 21.8 21.6 21.7 21.7 21.7 21.7 21.5 21.6 21.7 21.7 21.7 21.7 21.6 21.6 21.6 21.7 21.5 21.5 21.5 21.4 21.6 21.5 21.4 21.4 21.7 21.6 21.6 21.7 21.6 21.6 21.6 21.7 9.5 999.0 21.7 21.7 21.8 22.0 21.6 21.7 21.7 21.9 22.2 22.2 22.2 22.1 22.2 22.1 22.1 22.1 
Thu Aug 23 01:59:04 2018 H 77.2 P 18.750 D 99.2 21.8 21.7 21.7 21.8 21.7 21.6 21.5 21.6 21.6 21.6 21.6 21.8 21.6 21.5 21.6 21.6 21.6 21.4 21.5 21.6 21.6 21.5 21.4 21.5 21.7 21.7 21.7 21.7 21.7 21.6 21.6 21.7 9.5 999.0 21.6 21.7 21.8 21.9 21.6 21.6 21.6 21.9 22.2 22.1 22.1 22.1 22.2 22.1 22.1 22.1 
Thu Aug 23 02:04:05 2018 H 78.2 P 18.617 D 99.2 21.8 21.7 21.8 21.7 21.7 21.6 21.5 21.6 21.6 21.6 21.6 21.7 21.7 21.4 21.6 21.6 21.5 21.5 21.6 21.5 21.6 21.5 21.5 21.5 21.7 21.7 21.7 21.7 21.6 21.6 21.6 21.7 9.5 999.0 21.7 21.8 21.8 21.9 21.6 21.6 21.6 21.8 22.2 22.2 22.1 22.0 22.2 22.0 22.1 22.1 
Thu Aug 23 02:09:05 2018 H 79.2 P 18.583 D 99.2 21.7 21.7 21.7 21.8 21.8 21.6 21.5 21.5 21.6 21.6 21.6 21.6 21.6 21.5 21.6 21.6 21.5 21.5 21.4 21.5 21.6 21.4 21.4 21.5 21.6 21.6 21.7 21.7 21.6 21.5 21.6 21.6 9.5 999.0 21.7 21.8 21.8 21.9 21.6 21.7 21.6 21.8 22.2 22.2 22.1 22.2 22.2 22.0 22.1 22.2 
Thu Aug 23 02:14:05 2018 H 78.7 P 18.700 D 99.2 21.8 21.7 21.8 21.7 21.7 21.6 21.5 21.6 21.5 21.6 21.6 21.6 21.6 21.4 21.4 21.6 21.5 21.5 21.5 21.5 21.5 21.4 21.4 21.5 21.7 21.6 21.7 21.6 21.6 21.6 21.6 21.7 9.5 999.0 21.6 21.7 21.8 21.8 21.6 21.6 21.7 21.9 22.1 22.2 22.1 22.1 22.2 22.1 22.1 22.1 
Thu Aug 23 02:19:05 2018 H 78.3 P 18.850 D 99.2 21.7 21.7 21.7 21.8 21.7 21.6 21.6 21.6 21.6 21.6 21.6 21.6 21.6 21.5 21.5 21.6 21.5 21.5 21.5 21.6 21.5 21.5 21.4 21.5 21.6 21.6 21.7 21.7 21.7 21.7 21.7 21.6 9.5 999.0 21.6 21.7 21.8 21.9 21.6 21.6 21.7 21.9 22.2 22.1 22.1 22.0 22.2 22.0 22.1 22.2 
Thu Aug 23 02:24:05 2018 H 81.1 P 18.600 D 99.2 21.8 21.7 21.8 21.8 21.7 21.6 21.5 21.6 21.6 21.6 21.6 21.6 21.6 21.4 21.4 21.6 21.5 21.5 21.5 21.6 21.5 21.4 21.4 21.5 21.7 21.6 21.7 21.7 21.7 21.6 21.6 21.6 9.5 999.0 21.6 21.7 21.8 21.9 21.6 21.7 21.6 21.9 22.2 22.2 22.2 22.1 22.2 22.1 22.1 22.1 
Thu Aug 23 02:29:05 2018 H 81.7 P 18.617 D 99.2 21.9 21.7 21.8 21.8 21.7 21.6 21.5 21.5 21.6 21.5 21.5 21.6 21.6 21.5 21.5 21.6 21.5 21.5 21.5 21.5 21.6 21.4 21.4 21.5 21.6 21.7 21.7 21.7 21.7 21.5 21.6 21.6 9.5 999.0 21.6 21.7 21.8 21.9 21.6 21.6 21.7 21.8 22.2 22.2 22.1 22.1 22.2 22.1 22.1 22.1 
Thu Aug 23 02:34:05 2018 H 79.6 P 18.900 D 99.2 21.8 21.7 21.7 21.8 21.7 21.5 21.5 21.6 21.6 21.6 21.6 21.5 21.6 21.5 21.5 21.6 21.4 21.5 21.5 21.5 21.6 21.4 21.4 21.5 21.7 21.7 21.7 21.7 21.6 21.5 21.6 21.6 9.5 999.0 21.6 21.7 21.8 21.9 21.6 21.6 21.6 21.8 22.2 22.2 22.1 22.1 22.2 22.0 22.1 22.1 
Thu Aug 23 02:39:05 2018 H 80.1 P 18.783 D 99.2 21.8 21.7 21.7 21.8 21.6 21.6 21.5 21.6 21.5 21.6 21.6 21.6 21.6 21.5 21.5 21.6 21.5 21.5 21.5 21.5 21.6 21.4 21.4 21.5 21.7 21.6 21.6 21.6 21.7 21.6 21.6 21.6 9.5 999.0 21.6 21.7 21.8 21.9 21.6 21.7 21.7 21.8 22.2 22.2 22.1 22.2 22.2 22.0 22.1 22.1 
Thu Aug 23 02:44:05 2018 H 81.7 P 18.533 D 99.2 21.8 21.6 21.8 21.8 21.7 21.6 21.5 21.6 21.5 21.6 21.5 21.6 21.5 21.4 21.5 21.6 21.4 21.4 21.5 21.6 21.6 21.4 21.3 21.5 21.7 21.6 21.7 21.6 21.6 21.5 21.6 21.7 9.5 999.0 21.6 21.7 21.8 21.9 21.6 21.6 21.7 21.9 22.2 22.1 22.1 22.1 22.2 22.0 22.1 22.1 
Thu Aug 23 02:49:05 2018 H 84.8 P 18.400 D 99.2 21.7 21.6 21.6 21.6 21.7 21.5 21.5 21.5 21.6 21.5 21.6 21.6 21.5 21.4 21.5 21.6 21.5 21.5 21.5 21.5 21.6 21.4 21.4 21.5 21.7 21.6 21.7 21.7 21.6 21.5 21.6 21.6 9.5 999.0 21.6 21.7 21.8 21.9 21.6 21.6 21.6 21.9 22.2 22.2 22.1 22.1 22.2 22.0 22.1 22.1 
Thu Aug 23 02:59:06 2018 H -99.99 P 18.400 D 99.2 21.8 21.7 21.7 21.7 21.7 21.6 21.5 21.6 21.5 21.6 21.5 21.6 21.6 21.4 21.5 21.6 21.5 21.5 21.5 21.6 21.6 21.4 21.4 21.5 21.6 21.6 21.6 21.7 21.7 21.6 21.6 21.6 9.5 999.0 21.7 21.7 21.8 21.8 21.6 21.6 21.6 21.8 22.2 22.2 22.1 22.1 22.2 22.0 22.0 22.2 
Thu Aug 23 03:04:06 2018 H 88.1 P 18.050 D 99.2 21.7 21.6 21.6 21.6 21.6 21.6 21.3 21.4 21.6 21.5 21.6 21.5 21.5 21.5 21.5 21.7 21.5 21.4 21.4 21.5 21.6 21.4 21.4 21.5 21.6 21.6 21.6 21.6 21.6 21.5 21.6 21.6 9.5 999.0 21.7 21.7 21.8 21.9 21.6 21.7 21.7 21.9 22.2 22.2 22.1 22.1 22.2 22.1 22.1 22.1 
Thu Aug 23 03:09:06 2018 H 82.2 P 17.317 D 99.2 21.2 21.1 21.1 21.1 21.2 21.0 20.9 21.1 21.0 21.0 21.0 21.1 21.1 21.0 20.9 21.2 21.0 21.0 21.0 21.0 21.2 21.0 20.9 21.1 21.1 21.1 21.2 21.1 21.1 21.0 21.1 21.1 9.5 999.0 21.3 21.5 21.5 21.6 21.4 21.4 21.4 21.6 21.7 21.7 21.6 21.7 21.7 21.7 21.6 21.7 
Thu Aug 23 08:34:22 2018 H 79.1 P 99.1 D 99.2 999.0 999.0 999.0 999.0 999.0 999.0 999.0 999.0 999.0 999.0 999.0 999.0 999.0 999.0 999.0 999.0 999.0 999.0 999.0 999.0 999.0 999.0 999.0 999.0 999.0 999.0 999.0 999.0 999.0 999.0 999.0 999.0 99.35 99.36 999.0 999.0 999.0 999.0 999.0 999.0 999.0 999.0 999.0 999.0 999.0 999.0 999.0 999.0 999.0 999.0 
Thu Aug 23 08:39:22 2018 H 77.4 P 19.600 D 99.2 999.0 999.0 999.0 999.0 999.0 999.0 999.0 999.0 999.0 999.0 999.0 999.0 999.0 999.0 999.0 999.0 999.0 999.0 999.0 999.0 999.0 999.0 999.0 999.0 999.0 999.0 999.0 999.0 999.0 999.0 999.0 999.0 9.5 999.0 999.0 999.0 999.0 999.0 999.0 999.0 999.0 999.0 999.0 999.0 999.0 999.0 999.0 999.0 999.0 999.0 
Thu Aug 23 08:44:22 2018 H 77.0 P 20.000 D 99.2 999.0 999.0 999.0 999.0 999.0 999.0 999.0 999.0 999.0 999.0 999.0 999.0 999.0 999.0 999.0 999.0 999.0 999.0 999.0 999.0 999.0 999.0 999.0 999.0 999.0 999.0 999.0 999.0 999.0 999.0 999.0 999.0 9.5 999.0 999.0 999.0 999.0 999.0 999.0 999.0 999.0 999.0 999.0 999.0 999.0 999.0 999.0 999.0 999.0 999.0 
Thu Aug 23 08:49:22 2018 H 76.8 P 19.900 D 99.2 999.0 999.0 999.0 999.0 999.0 999.0 999.0 999.0 999.0 999.0 999.0 999.0 999.0 999.0 999.0 999.0 999.0 999.0 999.0 999.0 999.0 999.0 999.0 999.0 999.0 999.0 999.0 999.0 999.0 999.0 999.0 999.0 9.5 999.0 999.0 999.0 999.0 999.0 999.0 999.0 999.0 999.0 999.0 999.0 999.0 999.0 999.0 999.0 999.0 999.0 
Thu Aug 23 08:54:22 2018 H 75.9 P 20.100 D 99.2 999.0 999.0 999.0 999.0 999.0 999.0 999.0 999.0 999.0 999.0 999.0 999.0 999.0 999.0 999.0 999.0 999.0 999.0 999.0 999.0 999.0 999.0 999.0 999.0 999.0 999.0 999.0 999.0 999.0 999.0 999.0 999.0 9.5 999.0 999.0 999.0 999.0 999.0 999.0 999.0 999.0 999.0 999.0 999.0 999.0 999.0 999.0 999.0 999.0 999.0 
Thu Aug 23 08:59:22 2018 H 76.0 P 20.200 D 99.2 999.0 999.0 999.0 999.0 999.0 999.0 999.0 999.0 999.0 999.0 999.0 999.0 999.0 999.0 999.0 999.0 999.0 999.0 999.0 999.0 999.0 999.0 999.0 999.0 999.0 999.0 999.0 999.0 999.0 999.0 999.0 999.0 9.5 999.0 999.0 999.0 999.0 999.0 999.0 999.0 999.0 999.0 999.0 999.0 999.0 999.0 999.0 999.0 999.0 999.0 
Thu Aug 23 09:04:22 2018 H 75.6 P 20.400 D 99.2 999.0 999.0 999.0 999.0 999.0 999.0 999.0 999.0 999.0 999.0 999.0 999.0 999.0 999.0 999.0 999.0 999.0 999.0 999.0 999.0 999.0 999.0 999.0 999.0 999.0 999.0 999.0 999.0 999.0 999.0 999.0 999.0 9.5 999.0 999.0 999.0 999.0 999.0 999.0 999.0 999.0 999.0 999.0 999.0 999.0 999.0 999.0 999.0 999.0 999.0 
Thu Aug 23 09:09:22 2018 H 74.7 P 20.500 D 99.2 999.0 999.0 999.0 999.0 999.0 999.0 999.0 999.0 999.0 999.0 999.0 999.0 999.0 999.0 999.0 999.0 999.0 999.0 999.0 999.0 999.0 999.0 999.0 999.0 999.0 999.0 999.0 999.0 999.0 999.0 999.0 999.0 9.5 999.0 999.0 999.0 999.0 999.0 999.0 999.0 999.0 999.0 999.0 999.0 999.0 999.0 999.0 999.0 999.0 999.0 
Thu Aug 23 09:14:22 2018 H 74.5 P 20.600 D 99.2 999.0 999.0 999.0 999.0 999.0 999.0 999.0 999.0 999.0 999.0 999.0 999.0 999.0 999.0 999.0 999.0 999.0 999.0 999.0 999.0 999.0 999.0 999.0 999.0 999.0 999.0 999.0 999.0 999.0 999.0 999.0 999.0 9.5 999.0 999.0 999.0 999.0 999.0 999.0 999.0 999.0 999.0 999.0 999.0 999.0 999.0 999.0 999.0 999.0 999.0 
Thu Aug 23 09:19:22 2018 H 76.3 P 20.400 D 99.2 999.0 999.0 999.0 999.0 999.0 999.0 999.0 999.0 999.0 999.0 999.0 999.0 999.0 999.0 999.0 999.0 999.0 999.0 999.0 999.0 999.0 999.0 999.0 999.0 999.0 999.0 999.0 999.0 999.0 999.0 999.0 999.0 9.5 999.0 999.0 999.0 999.0 999.0 999.0 999.0 999.0 999.0 999.0 999.0 999.0 999.0 999.0 999.0 999.0 999.0 
Thu Aug 23 09:29:22 2018 H -99.99 P 20.500 D 99.2 999.0 999.0 999.0 999.0 999.0 999.0 999.0 999.0 999.0 999.0 999.0 999.0 999.0 999.0 999.0 999.0 999.0 999.0 999.0 999.0 999.0 999.0 999.0 999.0 999.0 999.0 999.0 999.0 999.0 999.0 999.0 999.0 9.5 999.0 999.0 999.0 999.0 999.0 999.0 999.0 999.0 999.0 999.0 999.0 999.0 999.0 999.0 999.0 999.0 999.0 
Thu Aug 23 09:34:22 2018 H 73.3 P 20.900 D 99.2 999.0 999.0 999.0 999.0 999.0 999.0 999.0 999.0 999.0 999.0 999.0 999.0 999.0 999.0 999.0 999.0 999.0 999.0 999.0 999.0 999.0 999.0 999.0 999.0 999.0 999.0 999.0 999.0 999.0 999.0 999.0 999.0 9.5 999.0 999.0 999.0 999.0 999.0 999.0 999.0 999.0 999.0 999.0 999.0 999.0 999.0 999.0 999.0 999.0 999.0 
Thu Aug 23 09:39:22 2018 H 73.9 P 20.900 D 99.2 999.0 999.0 999.0 999.0 999.0 999.0 999.0 999.0 999.0 999.0 999.0 999.0 999.0 999.0 999.0 999.0 999.0 999.0 999.0 999.0 999.0 999.0 999.0 999.0 999.0 999.0 999.0 999.0 999.0 999.0 999.0 999.0 9.5 999.0 999.0 999.0 999.0 999.0 999.0 999.0 999.0 999.0 999.0 999.0 999.0 999.0 999.0 999.0 999.0 999.0 
Thu Aug 23 09:44:22 2018 H 73.2 P 21.100 D 99.2 999.0 999.0 999.0 999.0 999.0 999.0 999.0 999.0 999.0 999.0 999.0 999.0 999.0 999.0 999.0 999.0 999.0 999.0 999.0 999.0 999.0 999.0 999.0 999.0 999.0 999.0 999.0 999.0 999.0 999.0 999.0 999.0 9.5 999.0 999.0 999.0 999.0 999.0 999.0 999.0 999.0 999.0 999.0 999.0 999.0 999.0 999.0 999.0 999.0 999.0 
Thu Aug 23 09:49:22 2018 H 72.4 P 21.300 D 99.2 999.0 999.0 999.0 999.0 999.0 999.0 999.0 999.0 999.0 999.0 999.0 999.0 999.0 999.0 999.0 999.0 999.0 999.0 999.0 999.0 999.0 999.0 999.0 999.0 999.0 999.0 999.0 999.0 999.0 999.0 999.0 999.0 9.5 999.0 999.0 999.0 999.0 999.0 999.0 999.0 999.0 999.0 999.0 999.0 999.0 999.0 999.0 999.0 999.0 999.0 
Thu Aug 23 09:54:22 2018 H 73.0 P 21.500 D 99.2 999.0 999.0 999.0 999.0 999.0 999.0 999.0 999.0 999.0 999.0 999.0 999.0 999.0 999.0 999.0 999.0 999.0 999.0 999.0 999.0 999.0 999.0 999.0 999.0 999.0 999.0 999.0 999.0 999.0 999.0 999.0 999.0 9.5 999.0 999.0 999.0 999.0 999.0 999.0 999.0 999.0 999.0 999.0 999.0 999.0 999.0 999.0 999.0 999.0 999.0 
Thu Aug 23 09:59:22 2018 H 73.8 P 21.633 D 99.2 999.0 999.0 999.0 999.0 999.0 999.0 999.0 999.0 999.0 999.0 999.0 999.0 999.0 999.0 999.0 999.0 999.0 999.0 999.0 999.0 999.0 999.0 999.0 999.0 999.0 999.0 999.0 999.0 999.0 999.0 999.0 999.0 9.5 999.0 999.0 999.0 999.0 999.0 999.0 999.0 999.0 999.0 999.0 999.0 999.0 999.0 999.0 999.0 999.0 999.0 
Thu Aug 23 10:04:22 2018 H 73.5 P 21.900 D 99.2 999.0 999.0 999.0 999.0 999.0 999.0 999.0 999.0 999.0 999.0 999.0 999.0 999.0 999.0 999.0 999.0 999.0 999.0 999.0 999.0 999.0 999.0 999.0 999.0 999.0 999.0 999.0 999.0 999.0 999.0 999.0 999.0 9.5 999.0 999.0 999.0 999.0 999.0 999.0 999.0 999.0 999.0 999.0 999.0 999.0 999.0 999.0 999.0 999.0 999.0 
Thu Aug 23 10:09:22 2018 H 74.1 P 21.633 D 99.2 999.0 999.0 999.0 999.0 999.0 999.0 999.0 999.0 999.0 999.0 999.0 999.0 999.0 999.0 999.0 999.0 999.0 999.0 999.0 999.0 999.0 999.0 999.0 999.0 999.0 999.0 999.0 999.0 999.0 999.0 999.0 999.0 9.5 999.0 999.0 999.0 999.0 999.0 999.0 999.0 999.0 999.0 999.0 999.0 999.0 999.0 999.0 999.0 999.0 999.0 
Thu Aug 23 10:14:22 2018 H 75.4 P 21.300 D 99.2 999.0 999.0 999.0 999.0 999.0 999.0 999.0 999.0 999.0 999.0 999.0 999.0 999.0 999.0 999.0 999.0 999.0 999.0 999.0 999.0 999.0 999.0 999.0 999.0 999.0 999.0 999.0 999.0 999.0 999.0 999.0 999.0 9.5 999.0 999.0 999.0 999.0 999.0 999.0 999.0 999.0 999.0 999.0 999.0 999.0 999.0 999.0 999.0 999.0 999.0 
Thu Aug 23 10:19:22 2018 H 75.5 P 21.100 D 99.2 999.0 999.0 999.0 999.0 999.0 999.0 999.0 999.0 999.0 999.0 999.0 999.0 999.0 999.0 999.0 999.0 999.0 999.0 999.0 999.0 999.0 999.0 999.0 999.0 999.0 999.0 999.0 999.0 999.0 999.0 999.0 999.0 9.5 999.0 999.0 999.0 999.0 999.0 999.0 999.0 999.0 999.0 999.0 999.0 999.0 999.0 999.0 999.0 999.0 999.0 
Thu Aug 23 10:24:22 2018 H 75.0 P 21.033 D 99.2 999.0 999.0 999.0 999.0 999.0 999.0 999.0 999.0 999.0 999.0 999.0 999.0 999.0 999.0 999.0 999.0 999.0 999.0 999.0 999.0 999.0 999.0 999.0 999.0 999.0 999.0 999.0 999.0 999.0 999.0 999.0 999.0 9.5 999.0 999.0 999.0 999.0 999.0 999.0 999.0 999.0 999.0 999.0 999.0 999.0 999.0 999.0 999.0 999.0 999.0 
Thu Aug 23 10:29:22 2018 H 75.5 P 20.800 D 99.2 999.0 999.0 999.0 999.0 999.0 999.0 999.0 999.0 999.0 999.0 999.0 999.0 999.0 999.0 999.0 999.0 999.0 999.0 999.0 999.0 999.0 999.0 999.0 999.0 999.0 999.0 999.0 999.0 999.0 999.0 999.0 999.0 9.5 999.0 999.0 999.0 999.0 999.0 999.0 999.0 999.0 999.0 999.0 999.0 999.0 999.0 999.0 999.0 999.0 999.0 
Thu Aug 23 10:34:22 2018 H 76.0 P 20.600 D 99.2 999.0 999.0 999.0 999.0 999.0 999.0 999.0 999.0 999.0 999.0 999.0 999.0 999.0 999.0 999.0 999.0 999.0 999.0 999.0 999.0 999.0 999.0 999.0 999.0 999.0 999.0 999.0 999.0 999.0 999.0 999.0 999.0 9.5 999.0 999.0 999.0 999.0 999.0 999.0 999.0 999.0 999.0 999.0 999.0 999.0 999.0 999.0 999.0 999.0 999.0 
Thu Aug 23 10:39:22 2018 H 77.4 P 20.300 D 99.2 999.0 999.0 999.0 999.0 999.0 999.0 999.0 999.0 999.0 999.0 999.0 999.0 999.0 999.0 999.0 999.0 999.0 999.0 999.0 999.0 999.0 999.0 999.0 999.0 999.0 999.0 999.0 999.0 999.0 999.0 999.0 999.0 9.5 999.0 999.0 999.0 999.0 999.0 999.0 999.0 999.0 999.0 999.0 999.0 999.0 999.0 999.0 999.0 999.0 999.0 
Thu Aug 23 10:44:22 2018 H 77.3 P 20.100 D 99.2 999.0 999.0 999.0 999.0 999.0 999.0 999.0 999.0 999.0 999.0 999.0 999.0 999.0 999.0 999.0 999.0 999.0 999.0 999.0 999.0 999.0 999.0 999.0 999.0 999.0 999.0 999.0 999.0 999.0 999.0 999.0 999.0 9.5 999.0 999.0 999.0 999.0 999.0 999.0 999.0 999.0 999.0 999.0 999.0 999.0 999.0 999.0 999.0 999.0 999.0 
Thu Aug 23 10:49:22 2018 H 79.0 P 19.700 D 99.2 999.0 999.0 999.0 999.0 999.0 999.0 999.0 999.0 999.0 999.0 999.0 999.0 999.0 999.0 999.0 999.0 999.0 999.0 999.0 999.0 999.0 999.0 999.0 999.0 999.0 999.0 999.0 999.0 999.0 999.0 999.0 999.0 9.5 999.0 999.0 999.0 999.0 999.0 999.0 999.0 999.0 999.0 999.0 999.0 999.0 999.0 999.0 999.0 999.0 999.0 
Thu Aug 23 10:54:22 2018 H 79.0 P 19.600 D 99.2 999.0 999.0 999.0 999.0 999.0 999.0 999.0 999.0 999.0 999.0 999.0 999.0 999.0 999.0 999.0 999.0 999.0 999.0 999.0 999.0 999.0 999.0 999.0 999.0 999.0 999.0 999.0 999.0 999.0 999.0 999.0 999.0 9.5 999.0 999.0 999.0 999.0 999.0 999.0 999.0 999.0 999.0 999.0 999.0 999.0 999.0 999.0 999.0 999.0 999.0 
Thu Aug 23 10:59:22 2018 H 78.6 P 19.600 D 99.2 999.0 999.0 999.0 999.0 999.0 999.0 999.0 999.0 999.0 999.0 999.0 999.0 999.0 999.0 999.0 999.0 999.0 999.0 999.0 999.0 999.0 999.0 999.0 999.0 999.0 999.0 999.0 999.0 999.0 999.0 999.0 999.0 9.5 999.0 999.0 999.0 999.0 999.0 999.0 999.0 999.0 999.0 999.0 999.0 999.0 999.0 999.0 999.0 999.0 999.0 
Thu Aug 23 11:04:22 2018 H 78.5 P 19.533 D 99.2 999.0 999.0 999.0 999.0 999.0 999.0 999.0 999.0 999.0 999.0 999.0 999.0 999.0 999.0 999.0 999.0 999.0 999.0 999.0 999.0 999.0 999.0 999.0 999.0 999.0 999.0 999.0 999.0 999.0 999.0 999.0 999.0 9.5 999.0 999.0 999.0 999.0 999.0 999.0 999.0 999.0 999.0 999.0 999.0 999.0 999.0 999.0 999.0 999.0 999.0 
Thu Aug 23 11:09:22 2018 H 77.4 P 19.400 D 99.2 999.0 999.0 999.0 999.0 999.0 999.0 999.0 999.0 999.0 999.0 999.0 999.0 999.0 999.0 999.0 999.0 999.0 999.0 999.0 999.0 999.0 999.0 999.0 999.0 999.0 999.0 999.0 999.0 999.0 999.0 999.0 999.0 9.5 999.0 999.0 999.0 999.0 999.0 999.0 999.0 999.0 999.0 999.0 999.0 999.0 999.0 999.0 999.0 999.0 999.0 
Thu Aug 23 11:14:22 2018 H 78.0 P 19.300 D 99.2 999.0 999.0 999.0 999.0 999.0 999.0 999.0 999.0 999.0 999.0 999.0 999.0 999.0 999.0 999.0 999.0 999.0 999.0 999.0 999.0 999.0 999.0 999.0 999.0 999.0 999.0 999.0 999.0 999.0 999.0 999.0 999.0 9.5 999.0 999.0 999.0 999.0 999.0 999.0 999.0 999.0 999.0 999.0 999.0 999.0 999.0 999.0 999.0 999.0 999.0 
Thu Aug 23 11:19:22 2018 H 78.6 P 19.300 D 99.2 999.0 999.0 999.0 999.0 999.0 999.0 999.0 999.0 999.0 999.0 999.0 999.0 999.0 999.0 999.0 999.0 999.0 999.0 999.0 999.0 999.0 999.0 999.0 999.0 999.0 999.0 999.0 999.0 999.0 999.0 999.0 999.0 9.5 999.0 999.0 999.0 999.0 999.0 999.0 999.0 999.0 999.0 999.0 999.0 999.0 999.0 999.0 999.0 999.0 999.0 
Thu Oct 25 13:45:22 2018 H 78.6 P 19.300 D 99.2 999.0 999.0 999.0 999.0 999.0 999.0 999.0 999.0 999.0 999.0 999.0 999.0 999.0 999.0 999.0 999.0 999.0 999.0 999.0 999.0 999.0 999.0 999.0 999.0 999.0 21.0 23.0 22.0 999.0 999.0 999.0 999.0 9.5 999.0 999.0 999.0 999.0 999.0 999.0 999.0 999.0 999.0 999.0 999.0 999.0 999.0 999.0 999.0 999.0 999.0 

                                Probe  Dew                                                                                                                                                                                                         Set   Flow 
    Date   Time             Humid    Amb   Point    NIB   EIB   SIB   WIB   NOB   EOB   SOB   WOB   NIT   EIT   SIT   WIT   NOT   EOT   SOT   WOT   STS   MHS   MHW   COS   COW   CIB   CIM   CIT   DBS   TSB   TSM   TST   HXI   HXO   HXA   HXD Point Rate   NTT   ETT   WTT   STT   NTB   ETB   WTB   STB   TRS   TRW   CSI   CSO   PCI   PCO   CCI   CCO
Explanation of codes.
These data are provided for the convenience of observers at Kitt Peak. The instruments are not calibrated and the values should be considered as indicative only.

dougw@noao.edu